createdAt,value
2022-08-12T00:02:02.589Z,101808.22
2022-08-12T00:04:52.603Z,101807.63
2022-08-12T00:07:38.960Z,101802.78
2022-08-12T00:10:24.718Z,101802.44
2022-08-12T00:13:11.507Z,101805.63
2022-08-12T00:16:01.466Z,101813.69
2022-08-12T00:18:47.392Z,101813.00
2022-08-12T00:21:36.288Z,101812.66
2022-08-12T00:24:22.552Z,101812.81
2022-08-12T00:27:08.422Z,101812.00
2022-08-12T00:29:54.332Z,101808.19
2022-08-12T00:32:41.375Z,101810.84
2022-08-12T00:35:38.196Z,101812.34
2022-08-12T00:38:25.890Z,101820.38
2022-08-12T00:41:12.599Z,101810.34
2022-08-12T00:43:44.070Z,101811.16
2022-08-12T00:46:29.435Z,101803.94
2022-08-12T00:49:01.682Z,101806.16
2022-08-12T00:51:52.889Z,101807.31
2022-08-12T00:54:20.930Z,101822.53
2022-08-12T00:56:51.117Z,101818.53
2022-08-12T00:59:19.389Z,101811.53
2022-08-12T01:02:11.032Z,101813.88
2022-08-12T01:04:57.506Z,101827.69
2022-08-12T01:07:45.419Z,101825.41
2022-08-12T01:10:32.928Z,101816.75
2022-08-12T01:13:18.617Z,101817.75
2022-08-12T01:15:50.383Z,101821.66
2022-08-12T01:18:19.048Z,101816.09
2022-08-12T01:20:58.007Z,101815.59
2022-08-12T01:23:41.308Z,101810.72
2022-08-12T01:26:16.474Z,101820.44
2022-08-12T01:28:46.129Z,101819.28
2022-08-12T01:31:16.482Z,101826.59
2022-08-12T01:33:57.095Z,101822.56
2022-08-12T01:36:27.688Z,101827.47
2022-08-12T01:38:59.030Z,101833.56
2022-08-12T01:41:31.737Z,101825.41
2022-08-12T01:44:02.218Z,101839.06
2022-08-12T01:46:43.711Z,101840.25
2022-08-12T01:49:39.716Z,101833.22
2022-08-12T01:52:19.980Z,101849.78
2022-08-12T01:54:53.246Z,101883.44
2022-08-12T01:57:57.797Z,101907.44
2022-08-12T02:00:20.085Z,101928.75
2022-08-12T02:02:54.937Z,101913.53
2022-08-12T02:05:56.783Z,101910.69
2022-08-12T02:08:52.106Z,101903.56
2022-08-12T02:11:24.129Z,101895.78
2022-08-12T02:14:18.568Z,101899.50
2022-08-12T02:17:06.354Z,101937.41
2022-08-12T02:19:49.564Z,101938.25
2022-08-12T02:22:28.608Z,101971.38
2022-08-12T02:25:02.518Z,102018.63
2022-08-12T02:27:35.866Z,102029.19
2022-08-12T02:30:06.487Z,102002.53
2022-08-12T02:32:40.315Z,101988.13
2022-08-12T02:35:11.255Z,101992.41
2022-08-12T02:37:40.831Z,102008.06
2022-08-12T02:40:13.052Z,102035.09
2022-08-12T02:42:47.871Z,102068.59
2022-08-12T02:45:21.473Z,102100.25
2022-08-12T02:47:59.916Z,102104.97
2022-08-12T02:50:32.968Z,102088.34
2022-08-12T02:53:01.493Z,102084.66
2022-08-12T02:55:36.181Z,102063.19
2022-08-12T02:58:11.953Z,102040.06
2022-08-12T03:00:42.952Z,101993.31
2022-08-12T03:03:12.815Z,101984.44
2022-08-12T03:05:48.627Z,101963.69
2022-08-12T03:08:32.772Z,101963.06
2022-08-12T03:11:06.174Z,101958.66
2022-08-12T03:13:42.760Z,101969.81
2022-08-12T03:16:12.428Z,101982.56
2022-08-12T03:18:45.740Z,102039.69
2022-08-12T03:21:55.462Z,102119.00
2022-08-12T03:24:07.205Z,102190.13
2022-08-12T03:26:36.438Z,102226.53
2022-08-12T03:29:06.949Z,102244.69
2022-08-12T03:31:36.267Z,102258.19
2022-08-12T03:34:07.604Z,102274.44
2022-08-12T03:36:39.565Z,102304.94
2022-08-12T03:39:35.582Z,102308.06
2022-08-12T03:42:23.217Z,102315.53
2022-08-12T03:45:15.354Z,102330.03
2022-08-12T03:48:18.720Z,102332.53
2022-08-12T03:51:05.745Z,102319.03
2022-08-12T03:53:51.731Z,102303.41
2022-08-12T03:56:37.689Z,102289.34
2022-08-12T03:59:24.993Z,102271.03
2022-08-12T04:01:57.165Z,102254.34
2022-08-12T04:04:29.682Z,102259.16
2022-08-12T04:06:58.889Z,102249.16
2022-08-12T04:09:27.376Z,102246.91
2022-08-12T04:12:12.445Z,102242.50
2022-08-12T04:14:40.559Z,102229.28
2022-08-12T04:17:09.394Z,102217.78
2022-08-12T04:19:38.707Z,102211.53
2022-08-12T04:22:06.577Z,102188.50
2022-08-12T04:24:36.391Z,102193.81
2022-08-12T04:27:08.310Z,102170.44
2022-08-12T04:30:21.291Z,102116.91
2022-08-12T04:32:25.334Z,102106.25
2022-08-12T04:34:55.227Z,102104.44
2022-08-12T04:37:23.448Z,102078.97
2022-08-12T04:39:52.726Z,102090.22
2022-08-12T04:42:21.180Z,102114.41
2022-08-12T04:44:49.457Z,102148.03
2022-08-12T04:47:17.849Z,102196.06
2022-08-12T04:49:48.123Z,102216.91
2022-08-12T04:52:17.399Z,102265.75
2022-08-12T04:54:45.915Z,102246.84
2022-08-12T04:57:13.700Z,102250.63
2022-08-12T04:59:47.908Z,102250.59
2022-08-12T05:02:21.586Z,102216.44
2022-08-12T05:04:52.720Z,102203.03
2022-08-12T05:07:24.299Z,102193.00
2022-08-12T05:10:00.630Z,102156.13
2022-08-12T05:12:43.041Z,102139.88
2022-08-12T05:15:27.751Z,102126.31
2022-08-12T05:18:00.245Z,102125.63
2022-08-12T05:20:35.798Z,102110.91
2022-08-12T05:23:13.076Z,102104.50
2022-08-12T05:25:43.254Z,102089.59
2022-08-12T05:28:13.038Z,102071.66
2022-08-12T05:30:42.556Z,102066.31
2022-08-12T05:33:11.947Z,102063.81
2022-08-12T05:35:42.820Z,102058.34
2022-08-12T05:38:30.899Z,102049.00
2022-08-12T05:40:58.709Z,102026.88
2022-08-12T05:43:26.912Z,102031.06
2022-08-12T05:45:54.841Z,102015.78
2022-08-12T05:48:23.353Z,101988.56
2022-08-12T05:50:52.557Z,101987.56
2022-08-12T05:53:21.691Z,101984.94
2022-08-12T05:55:49.445Z,101960.72
2022-08-12T05:58:17.191Z,101954.63
2022-08-12T06:00:44.957Z,102010.31
2022-08-12T06:03:14.063Z,102035.03
2022-08-12T06:05:55.167Z,102029.41
2022-08-12T06:08:26.282Z,101984.50
2022-08-12T06:10:57.074Z,101977.81
2022-08-12T06:13:25.487Z,101958.44
2022-08-12T06:15:56.883Z,101940.22
2022-08-12T06:18:29.322Z,101927.69
2022-08-12T06:21:01.689Z,101895.78
2022-08-12T06:23:31.298Z,101899.56
2022-08-12T06:26:00.165Z,101889.44
2022-08-12T06:28:30.487Z,101882.19
2022-08-12T06:31:24.852Z,101869.84
2022-08-12T06:33:59.481Z,101854.75
2022-08-12T06:36:37.539Z,101847.56
2022-08-12T06:39:14.782Z,101846.16
2022-08-12T06:42:05.041Z,101850.66
2022-08-12T06:44:50.365Z,101828.16
2022-08-12T06:47:19.824Z,101809.34
2022-08-12T06:49:48.533Z,101817.34
2022-08-12T06:52:17.283Z,101807.09
2022-08-12T06:54:46.459Z,101797.78
2022-08-12T06:58:08.043Z,101788.53
2022-08-12T07:00:01.989Z,101787.59
2022-08-12T07:02:32.574Z,101778.97
2022-08-12T07:05:04.260Z,101766.09
2022-08-12T07:07:31.979Z,101765.38
2022-08-12T07:10:06.170Z,101758.97
2022-08-12T07:12:36.752Z,101762.31
2022-08-12T07:15:05.545Z,101755.75
2022-08-12T07:17:37.498Z,101767.50
2022-08-12T07:20:09.945Z,101772.78
2022-08-12T07:22:39.072Z,101786.47
2022-08-12T07:25:27.093Z,101777.69
2022-08-12T07:27:55.237Z,101787.75
2022-08-12T07:30:24.008Z,101805.47
2022-08-12T07:32:52.245Z,101823.13
2022-08-12T07:35:20.506Z,101858.56
2022-08-12T07:37:50.447Z,101865.44
2022-08-12T07:40:20.433Z,101880.47
2022-08-12T07:42:48.299Z,101901.69
2022-08-12T07:45:16.183Z,101903.97
2022-08-12T07:47:44.876Z,101929.63
2022-08-12T07:50:13.914Z,101921.75
2022-08-12T07:52:43.674Z,101954.41
2022-08-12T07:55:13.185Z,101963.56
2022-08-12T07:57:54.169Z,101982.78
2022-08-12T08:00:22.282Z,102007.88
2022-08-12T08:02:51.310Z,102024.75
2022-08-12T08:05:19.600Z,102050.31
2022-08-12T08:07:47.635Z,102043.25
2022-08-12T08:10:16.650Z,102036.75
2022-08-12T08:12:58.106Z,102056.69
2022-08-12T08:16:00.706Z,102095.44
2022-08-12T08:18:26.019Z,102132.56
2022-08-12T08:20:56.445Z,102135.31
2022-08-12T08:23:46.070Z,102120.59
2022-08-12T08:26:16.461Z,102132.94
2022-08-12T08:28:44.565Z,102159.63
2022-08-12T08:31:15.003Z,102156.97
2022-08-12T08:34:09.533Z,102160.31
2022-08-12T08:36:30.577Z,102174.56
2022-08-12T08:38:58.901Z,102184.47
2022-08-12T08:42:16.577Z,102182.34
2022-08-12T08:44:32.206Z,102180.13
2022-08-12T08:47:03.450Z,102182.22
2022-08-12T08:49:31.188Z,102183.84
2022-08-12T08:51:58.964Z,102181.81
2022-08-12T08:54:26.762Z,102181.38
2022-08-12T08:56:54.497Z,102182.03
2022-08-12T08:59:22.398Z,102180.53
2022-08-12T09:01:50.235Z,102181.28
2022-08-12T09:05:12.244Z,102184.25
2022-08-12T09:07:18.082Z,102185.97
2022-08-12T09:13:03.154Z,102177.06
2022-08-12T09:15:36.319Z,102187.94
2022-08-12T09:20:54.842Z,102183.16
2022-08-12T09:23:57.284Z,102181.31
2022-08-12T09:26:10.731Z,102176.81
2022-08-12T09:28:41.078Z,102176.88
2022-08-12T09:32:05.935Z,102174.22
2022-08-12T09:34:26.814Z,102170.97
2022-08-12T09:36:58.183Z,102167.63
2022-08-12T09:40:07.988Z,102170.66
2022-08-12T09:42:43.968Z,102168.47
2022-08-12T09:45:23.136Z,102174.38
2022-08-12T09:47:59.116Z,102168.59
2022-08-12T09:50:28.061Z,102175.06
2022-08-12T09:53:15.246Z,102169.97
2022-08-12T09:56:06.398Z,102164.06
2022-08-12T09:58:58.637Z,102174.91
2022-08-12T10:01:25.292Z,102164.69
2022-08-12T10:04:05.581Z,102167.13
2022-08-12T10:06:36.770Z,102163.72
2022-08-12T10:09:23.000Z,102156.22
2022-08-12T10:12:13.730Z,102140.38
2022-08-12T10:14:50.187Z,102144.63
2022-08-12T10:17:21.592Z,102151.03
2022-08-12T10:19:51.999Z,102144.22
2022-08-12T10:22:40.319Z,102141.25
2022-08-12T10:26:36.751Z,102128.72
2022-08-12T10:28:34.990Z,102149.50
2022-08-12T10:31:04.885Z,102128.16
2022-08-12T10:33:34.477Z,102133.47
2022-08-12T10:36:36.351Z,102123.88
2022-08-12T10:40:01.176Z,102117.31
2022-08-12T10:42:18.344Z,102106.63
2022-08-12T10:45:00.974Z,102103.94
2022-08-12T10:48:07.182Z,102106.22
2022-08-12T10:50:33.625Z,102107.03
2022-08-12T10:53:08.696Z,102102.84
2022-08-12T10:55:37.086Z,102099.59
2022-08-12T10:58:28.110Z,102096.19
2022-08-12T11:01:50.331Z,102088.16
2022-08-12T11:04:19.134Z,102098.41
2022-08-12T11:07:06.190Z,102079.56
2022-08-12T11:09:56.244Z,102072.50
2022-08-12T11:12:54.807Z,102072.97
2022-08-12T11:14:59.273Z,102078.16
2022-08-12T11:17:43.622Z,102066.66
2022-08-12T11:20:16.489Z,102053.97
2022-08-12T11:22:57.879Z,102047.97
2022-08-12T11:25:56.141Z,102048.81
2022-08-12T11:28:16.220Z,102069.13
2022-08-12T11:30:46.470Z,102074.41
2022-08-12T11:33:24.448Z,102060.91
2022-08-12T11:36:16.511Z,102053.34
2022-08-12T11:38:50.303Z,102056.44
2022-08-12T11:41:20.684Z,102074.19
2022-08-12T11:43:59.278Z,102070.50
2022-08-12T11:46:28.461Z,102068.84
2022-08-12T11:48:58.310Z,102061.22
2022-08-12T11:51:26.543Z,102044.94
2022-08-12T11:54:04.641Z,102057.09
2022-08-12T11:56:38.192Z,102055.13
2022-08-12T12:02:02.459Z,102033.66
2022-08-12T12:04:34.263Z,102046.03
2022-08-12T12:07:07.127Z,102039.72
2022-08-12T12:09:52.740Z,102040.47
2022-08-12T12:12:22.987Z,102037.63
2022-08-12T12:14:54.877Z,102033.50
2022-08-12T12:17:25.214Z,102035.28
2022-08-12T12:19:53.652Z,102033.38
2022-08-12T12:22:30.714Z,102031.03
2022-08-12T12:24:59.307Z,102029.78
2022-08-12T12:28:04.849Z,102030.63
2022-08-12T12:30:34.686Z,102031.16
2022-08-12T12:33:04.240Z,102022.09
2022-08-12T12:36:19.771Z,102023.44
2022-08-12T12:38:25.350Z,102009.66
2022-08-12T12:40:53.528Z,102010.19
2022-08-12T12:43:29.090Z,102009.44
2022-08-12T12:46:10.497Z,102007.22
2022-08-12T12:48:44.364Z,102019.31
2022-08-12T12:51:49.030Z,102004.22
2022-08-12T12:54:10.041Z,102004.75
2022-08-12T12:56:42.287Z,101997.00
2022-08-12T12:59:54.501Z,101995.66
2022-08-12T13:02:08.031Z,101990.16
2022-08-12T13:04:38.452Z,101978.50
2022-08-12T13:07:07.029Z,102001.44
2022-08-12T13:09:36.294Z,102011.31
2022-08-12T13:12:05.362Z,102000.06
2022-08-12T13:14:39.518Z,101991.50
2022-08-12T13:17:09.622Z,101996.22
2022-08-12T13:19:45.306Z,101994.22
2022-08-12T13:22:21.378Z,101996.41
2022-08-12T13:24:56.599Z,101997.06
2022-08-12T13:27:34.591Z,101987.09
2022-08-12T13:30:10.726Z,101990.78
2022-08-12T13:32:40.530Z,101976.97
2022-08-12T13:35:19.661Z,101978.88
2022-08-12T13:37:54.711Z,101979.66
2022-08-12T13:40:24.639Z,101970.66
2022-08-12T13:42:57.467Z,101977.13
2022-08-12T13:45:25.515Z,101975.34
2022-08-12T13:47:55.840Z,101975.88
2022-08-12T13:50:32.548Z,101963.34
2022-08-12T13:53:06.274Z,101967.03
2022-08-12T13:55:59.680Z,101958.78
2022-08-12T13:58:30.931Z,101956.66
2022-08-12T14:01:04.647Z,101961.75
2022-08-12T14:03:50.553Z,101950.06
2022-08-12T14:06:25.882Z,101950.34
2022-08-12T14:08:58.337Z,101952.25
2022-08-12T14:11:27.853Z,101965.03
2022-08-12T14:14:03.349Z,101958.25
2022-08-12T14:16:49.046Z,101957.81
2022-08-12T14:19:24.544Z,101957.09
2022-08-12T14:22:01.263Z,101963.38
2022-08-12T14:24:35.518Z,101958.28
2022-08-12T14:27:03.672Z,101950.34
2022-08-12T14:29:55.817Z,101953.94
2022-08-12T14:32:24.967Z,101953.97
2022-08-12T14:34:56.517Z,101957.41
2022-08-12T14:37:58.008Z,101952.63
2022-08-12T14:40:18.220Z,101949.44
2022-08-12T14:42:47.199Z,101939.47
2022-08-12T14:45:15.660Z,101950.25
2022-08-12T14:47:58.759Z,101951.59
2022-08-12T14:50:37.455Z,101951.59
2022-08-12T14:59:23.473Z,101947.41
2022-08-12T15:01:54.599Z,101951.63
2022-08-12T15:04:26.097Z,101949.44
2022-08-12T15:06:55.102Z,101951.38
2022-08-12T15:09:28.761Z,101945.78
2022-08-12T15:12:03.345Z,101940.16
2022-08-12T15:14:32.126Z,101944.50
2022-08-12T15:17:06.479Z,101949.72
2022-08-12T15:20:27.845Z,101948.06
2022-08-12T15:22:36.995Z,101952.84
2022-08-12T15:25:10.196Z,101944.34
2022-08-12T15:28:05.094Z,101938.44
2022-08-12T15:30:37.093Z,101935.38
2022-08-12T15:33:12.927Z,101942.19
2022-08-12T15:35:51.965Z,101930.75
2022-08-12T15:38:25.066Z,101929.47
2022-08-12T15:40:57.237Z,101916.13
2022-08-12T15:44:15.919Z,101934.63
2022-08-12T15:46:16.716Z,101936.59
2022-08-12T15:48:46.991Z,101934.13
2022-08-12T15:51:59.597Z,101926.94
2022-08-12T15:54:33.352Z,101922.34
2022-08-12T15:57:08.149Z,101925.47
2022-08-12T16:00:00.289Z,101921.22
2022-08-12T16:02:26.963Z,101934.88
2022-08-12T16:04:55.749Z,101920.63
2022-08-12T16:07:26.067Z,101922.00
2022-08-12T16:10:06.907Z,101920.06
2022-08-12T16:12:54.487Z,101923.03
2022-08-12T16:15:26.341Z,101914.06
2022-08-12T16:18:19.839Z,101906.84
2022-08-12T16:20:46.735Z,101900.91
2022-08-12T16:23:36.266Z,101905.19
2022-08-12T16:26:15.447Z,101900.16
2022-08-12T16:28:49.912Z,101896.63
2022-08-12T16:31:23.155Z,101898.41
2022-08-12T16:33:58.954Z,101894.03
2022-08-12T16:36:29.230Z,101898.75
2022-08-12T16:38:57.271Z,101897.34
2022-08-12T16:41:25.614Z,101900.25
2022-08-12T16:43:58.487Z,101894.63
2022-08-12T16:46:32.806Z,101891.44
2022-08-12T16:49:04.112Z,101895.31
2022-08-12T16:51:40.408Z,101893.91
2022-08-12T16:54:16.073Z,101889.56
2022-08-12T16:56:50.726Z,101887.34
2022-08-12T16:59:25.546Z,101883.94
2022-08-12T17:01:54.263Z,101881.28
2022-08-12T17:04:24.302Z,101878.56
2022-08-12T17:06:52.750Z,101878.78
2022-08-12T17:09:20.855Z,101882.63
2022-08-12T17:11:50.251Z,101879.84
2022-08-12T17:14:20.400Z,101887.50
2022-08-12T17:16:55.180Z,101887.44
2022-08-12T17:20:35.188Z,101887.56
2022-08-12T17:22:16.342Z,101886.50
2022-08-12T17:24:54.490Z,101885.34
2022-08-12T17:27:24.452Z,101882.84
2022-08-12T17:30:04.194Z,101882.94
2022-08-12T17:32:35.822Z,101883.72
2022-08-12T17:35:23.495Z,101881.81
2022-08-12T17:38:00.091Z,101889.34
2022-08-12T17:40:35.874Z,101882.91
2022-08-12T17:43:57.239Z,101887.72
2022-08-12T17:45:59.043Z,101890.94
2022-08-12T17:48:34.942Z,101892.19
2022-08-12T17:51:15.616Z,101889.03
2022-08-12T17:54:11.157Z,101895.31
2022-08-12T17:56:37.151Z,101895.72
2022-08-12T17:59:07.362Z,101896.66
2022-08-12T18:01:36.576Z,101903.75
2022-08-12T18:04:22.873Z,101917.53
2022-08-12T18:06:55.767Z,101911.31
2022-08-12T18:09:32.319Z,101922.09
2022-08-12T18:12:24.460Z,101914.84
2022-08-12T18:14:58.639Z,101921.63
2022-08-12T18:17:27.359Z,101923.84
2022-08-12T18:20:06.557Z,101925.06
2022-08-12T18:22:38.666Z,101923.13
2022-08-12T18:26:13.187Z,101933.53
2022-08-12T18:28:16.059Z,101924.59
2022-08-12T18:30:52.738Z,101929.59
2022-08-12T18:33:25.572Z,101941.75
2022-08-12T18:35:56.851Z,101945.56
2022-08-12T18:38:27.719Z,101941.94
2022-08-12T18:41:21.318Z,101947.69
2022-08-12T18:44:00.128Z,101946.19
2022-08-12T18:46:46.922Z,101958.78
2022-08-12T18:49:20.649Z,101947.84
2022-08-12T18:51:55.574Z,101951.19
2022-08-12T18:54:32.334Z,101948.25
2022-08-12T18:57:03.734Z,101962.50
2022-08-12T19:00:01.815Z,101958.25
2022-08-12T19:02:23.122Z,101956.44
2022-08-12T19:04:53.885Z,101956.22
2022-08-12T19:07:25.123Z,101962.09
2022-08-12T19:09:59.952Z,101959.16
2022-08-12T19:12:57.487Z,101968.09
2022-08-12T19:15:26.880Z,101970.03
2022-08-12T19:18:00.403Z,101966.66
2022-08-12T19:20:30.670Z,101973.16
2022-08-12T19:23:07.797Z,101975.66
2022-08-12T19:26:01.434Z,101979.66
2022-08-12T19:28:34.621Z,101985.06
2022-08-12T19:31:44.990Z,101984.00
2022-08-12T19:35:06.689Z,101984.44
2022-08-12T19:37:17.097Z,101976.13
2022-08-12T19:40:08.035Z,101980.28
2022-08-12T19:42:42.592Z,101972.59
2022-08-12T19:45:15.726Z,101964.66
2022-08-12T19:47:46.642Z,101971.94
2022-08-12T19:50:20.250Z,101967.16
2022-08-12T19:52:51.227Z,101976.28
2022-08-12T19:55:27.254Z,101974.63
2022-08-12T19:58:02.573Z,101972.28
2022-08-12T20:00:35.932Z,101968.56
2022-08-12T20:03:06.232Z,101968.34
2022-08-12T20:06:05.076Z,101968.38
2022-08-12T20:08:31.705Z,101977.72
2022-08-12T20:12:13.643Z,101978.53
2022-08-12T20:14:00.402Z,101987.03
2022-08-12T20:16:57.691Z,101985.41
2022-08-12T20:19:52.501Z,101991.41
2022-08-12T20:22:16.780Z,101979.56
2022-08-12T20:25:09.007Z,101982.66
2022-08-12T20:28:04.424Z,101983.47
2022-08-12T20:30:37.808Z,101982.69
2022-08-12T20:33:23.147Z,101982.63
2022-08-12T20:36:13.784Z,101984.41
2022-08-12T20:38:40.293Z,101985.81
2022-08-12T20:41:16.558Z,101984.38
2022-08-12T20:43:49.644Z,101983.16
2022-08-12T20:46:19.115Z,101984.78
2022-08-12T20:48:54.815Z,101980.53
2022-08-12T20:51:27.567Z,101983.88
2022-08-12T20:53:58.970Z,101984.53
2022-08-12T20:56:33.000Z,101985.34
2022-08-12T20:59:05.464Z,101981.09
2022-08-12T21:01:47.122Z,101986.06
2022-08-12T21:04:34.598Z,101985.25
2022-08-12T21:07:08.997Z,101979.75
2022-08-12T21:09:41.468Z,101985.22
2022-08-12T21:12:28.735Z,101977.09
2022-08-12T21:15:23.152Z,101977.28
2022-08-12T21:18:01.116Z,101978.47
2022-08-12T21:20:39.566Z,101976.09
2022-08-12T21:23:08.838Z,101978.06
2022-08-12T21:25:45.450Z,101977.47
2022-08-12T21:28:14.295Z,101974.38
2022-08-12T21:31:11.467Z,101981.28
2022-08-12T21:33:32.141Z,101991.72
2022-08-12T21:36:22.562Z,101985.38
2022-08-12T21:39:18.154Z,101993.63
2022-08-12T21:41:50.101Z,101985.34
2022-08-12T21:44:23.965Z,101980.66
2022-08-12T21:47:12.072Z,101977.72
2022-08-12T21:49:55.206Z,101981.00
2022-08-12T21:52:28.387Z,101982.63
2022-08-12T21:55:02.970Z,101972.16
2022-08-12T21:57:36.441Z,101983.03
2022-08-12T22:00:17.148Z,101990.97
2022-08-12T22:03:04.609Z,101983.22
2022-08-12T22:05:50.253Z,101984.63
2022-08-12T22:08:22.122Z,101986.28
2022-08-12T22:10:52.315Z,101986.28
2022-08-12T22:14:08.001Z,101975.59
2022-08-12T22:16:08.609Z,101984.34
2022-08-12T22:18:39.348Z,101989.94
2022-08-12T22:21:08.974Z,101986.16
2022-08-12T22:23:51.951Z,101990.13
2022-08-12T22:26:37.261Z,101981.00
2022-08-12T22:29:23.054Z,101980.28
2022-08-12T22:31:53.771Z,101979.94
2022-08-12T22:34:29.570Z,101980.34
2022-08-12T22:37:01.079Z,101979.28
2022-08-12T22:39:28.932Z,101969.97
2022-08-12T22:42:16.726Z,101973.50
2022-08-12T22:45:05.152Z,101968.56
2022-08-12T22:47:53.656Z,101968.16
2022-08-12T22:50:27.696Z,101966.41
2022-08-12T22:53:15.039Z,101969.00
2022-08-12T22:55:59.048Z,101965.09
2022-08-12T22:58:33.859Z,101958.81
2022-08-12T23:01:03.449Z,101950.31
2022-08-12T23:03:49.507Z,101956.38
2022-08-12T23:06:23.780Z,101960.56
2022-08-12T23:08:52.780Z,101956.16
2022-08-12T23:11:24.015Z,101950.31
2022-08-12T23:13:57.029Z,101955.16
2022-08-12T23:16:31.511Z,101952.31
2022-08-12T23:19:10.775Z,101953.59
2022-08-12T23:22:04.870Z,101946.44
2022-08-12T23:24:55.416Z,101940.59
2022-08-12T23:27:50.311Z,101946.16
2022-08-12T23:30:31.211Z,101943.84
2022-08-12T23:33:01.408Z,101942.38
2022-08-12T23:35:54.116Z,101947.91
2022-08-12T23:38:28.949Z,101943.84
2022-08-12T23:41:00.820Z,101940.97
2022-08-12T23:43:39.574Z,101932.59
2022-08-12T23:46:09.620Z,101934.38
2022-08-12T23:48:38.109Z,101928.91
2022-08-12T23:51:22.370Z,101927.19
2022-08-12T23:53:55.294Z,101930.56
2022-08-12T23:56:24.667Z,101924.69
2022-08-12T23:58:55.205Z,101920.50
